sensor_id;sensor_type;location;lat;lon;timestamp;P1;durP1;ratioP1;P2;durP2;ratioP2
20014;SDS011;61787;42.022;23.078;2022-11-15T00:00:46;43.13;;;29.57;;
20014;SDS011;61787;42.022;23.078;2022-11-15T00:01:48;43.43;;;28.77;;
20014;SDS011;61787;42.022;23.078;2022-11-15T00:02:52;46.97;;;28.83;;
20014;SDS011;61787;42.022;23.078;2022-11-15T00:03:53;46.77;;;28.83;;
20014;SDS011;61787;42.022;23.078;2022-11-15T00:04:55;44.23;;;29.73;;
20014;SDS011;61787;42.022;23.078;2022-11-15T00:06:00;42.90;;;30.37;;
20014;SDS011;61787;42.022;23.078;2022-11-15T00:07:04;47.03;;;30.77;;
20014;SDS011;61787;42.022;23.078;2022-11-15T00:08:05;42.37;;;29.20;;
20014;SDS011;61787;42.022;23.078;2022-11-15T00:09:07;43.67;;;28.73;;
20014;SDS011;61787;42.022;23.078;2022-11-15T00:10:09;41.50;;;28.03;;
20014;SDS011;61787;42.022;23.078;2022-11-15T00:11:11;43.47;;;29.43;;
20014;SDS011;61787;42.022;23.078;2022-11-15T00:12:13;47.27;;;29.10;;
20014;SDS011;61787;42.022;23.078;2022-11-15T00:13:15;44.10;;;29.10;;
20014;SDS011;61787;42.022;23.078;2022-11-15T00:14:17;44.47;;;30.00;;
20014;SDS011;61787;42.022;23.078;2022-11-15T00:15:18;48.50;;;29.57;;
20014;SDS011;61787;42.022;23.078;2022-11-15T00:16:20;45.37;;;30.30;;
20014;SDS011;61787;42.022;23.078;2022-11-15T00:17:22;42.80;;;29.30;;
20014;SDS011;61787;42.022;23.078;2022-11-15T00:18:23;45.87;;;29.57;;
20014;SDS011;61787;42.022;23.078;2022-11-15T00:19:25;42.77;;;28.87;;
20014;SDS011;61787;42.022;23.078;2022-11-15T00:20:26;41.30;;;28.07;;
20014;SDS011;61787;42.022;23.078;2022-11-15T00:21:28;41.57;;;28.93;;
20014;SDS011;61787;42.022;23.078;2022-11-15T00:22:32;41.50;;;27.77;;
20014;SDS011;61787;42.022;23.078;2022-11-15T00:23:35;40.97;;;27.33;;
20014;SDS011;61787;42.022;23.078;2022-11-15T00:24:36;40.63;;;28.10;;
20014;SDS011;61787;42.022;23.078;2022-11-15T00:25:38;42.37;;;28.17;;
20014;SDS011;61787;42.022;23.078;2022-11-15T00:26:40;45.73;;;28.97;;
20014;SDS011;61787;42.022;23.078;2022-11-15T00:27:41;44.13;;;27.50;;
20014;SDS011;61787;42.022;23.078;2022-11-15T00:28:43;40.20;;;27.97;;
20014;SDS011;61787;42.022;23.078;2022-11-15T00:29:45;38.77;;;27.63;;
20014;SDS011;61787;42.022;23.078;2022-11-15T00:30:46;37.97;;;27.40;;
20014;SDS011;61787;42.022;23.078;2022-11-15T00:31:48;42.63;;;27.13;;
20014;SDS011;61787;42.022;23.078;2022-11-15T00:32:49;40.53;;;26.27;;
20014;SDS011;61787;42.022;23.078;2022-11-15T00:33:51;37.77;;;26.23;;
20014;SDS011;61787;42.022;23.078;2022-11-15T00:34:53;35.70;;;24.27;;
20014;SDS011;61787;42.022;23.078;2022-11-15T00:35:59;34.73;;;23.27;;
20014;SDS011;61787;42.022;23.078;2022-11-15T00:37:02;36.73;;;24.10;;
20014;SDS011;61787;42.022;23.078;2022-11-15T00:38:04;34.00;;;24.03;;
20014;SDS011;61787;42.022;23.078;2022-11-15T00:39:05;33.87;;;23.33;;
20014;SDS011;61787;42.022;23.078;2022-11-15T00:40:07;34.60;;;23.00;;
20014;SDS011;61787;42.022;23.078;2022-11-15T00:41:10;34.00;;;24.83;;
20014;SDS011;61787;42.022;23.078;2022-11-15T00:42:11;37.83;;;25.63;;
20014;SDS011;61787;42.022;23.078;2022-11-15T00:43:14;40.37;;;25.17;;
20014;SDS011;61787;42.022;23.078;2022-11-15T00:44:15;36.80;;;26.17;;
20014;SDS011;61787;42.022;23.078;2022-11-15T00:45:17;35.73;;;25.60;;
20014;SDS011;61787;42.022;23.078;2022-11-15T00:46:18;35.77;;;25.57;;
20014;SDS011;61787;42.022;23.078;2022-11-15T00:47:20;33.53;;;24.90;;
20014;SDS011;61787;42.022;23.078;2022-11-15T00:48:21;36.43;;;24.93;;
20014;SDS011;61787;42.022;23.078;2022-11-15T00:49:23;36.50;;;25.83;;
20014;SDS011;61787;42.022;23.078;2022-11-15T00:50:24;37.00;;;26.50;;
20014;SDS011;61787;42.022;23.078;2022-11-15T00:51:26;42.97;;;27.07;;
20014;SDS011;61787;42.022;23.078;2022-11-15T00:52:28;41.53;;;27.03;;
20014;SDS011;61787;42.022;23.078;2022-11-15T00:53:29;41.57;;;27.97;;
20014;SDS011;61787;42.022;23.078;2022-11-15T00:54:31;42.13;;;29.33;;
20014;SDS011;61787;42.022;23.078;2022-11-15T00:55:33;42.10;;;29.03;;
20014;SDS011;61787;42.022;23.078;2022-11-15T00:56:34;43.93;;;29.03;;
20014;SDS011;61787;42.022;23.078;2022-11-15T00:57:36;39.07;;;28.60;;
20014;SDS011;61787;42.022;23.078;2022-11-15T00:58:37;38.93;;;28.10;;
20014;SDS011;61787;42.022;23.078;2022-11-15T00:59:39;41.43;;;28.57;;
20014;SDS011;61787;42.022;23.078;2022-11-15T01:00:41;39.07;;;28.07;;
20014;SDS011;61787;42.022;23.078;2022-11-15T01:01:42;40.80;;;28.87;;
20014;SDS011;61787;42.022;23.078;2022-11-15T01:02:44;40.10;;;28.63;;
20014;SDS011;61787;42.022;23.078;2022-11-15T01:03:45;39.83;;;28.93;;
20014;SDS011;61787;42.022;23.078;2022-11-15T01:04:47;39.43;;;28.40;;
20014;SDS011;61787;42.022;23.078;2022-11-15T01:05:49;40.40;;;29.30;;
20014;SDS011;61787;42.022;23.078;2022-11-15T01:06:50;39.43;;;29.40;;
20014;SDS011;61787;42.022;23.078;2022-11-15T01:07:53;38.13;;;29.57;;
20014;SDS011;61787;42.022;23.078;2022-11-15T01:08:55;45.17;;;30.47;;
20014;SDS011;61787;42.022;23.078;2022-11-15T01:09:56;38.70;;;29.07;;
20014;SDS011;61787;42.022;23.078;2022-11-15T01:11:02;38.90;;;29.33;;
20014;SDS011;61787;42.022;23.078;2022-11-15T01:12:05;37.73;;;26.83;;
20014;SDS011;61787;42.022;23.078;2022-11-15T01:13:07;34.73;;;20.60;;
20014;SDS011;61787;42.022;23.078;2022-11-15T01:14:09;33.17;;;19.90;;
20014;SDS011;61787;42.022;23.078;2022-11-15T01:15:11;35.43;;;22.23;;
20014;SDS011;61787;42.022;23.078;2022-11-15T01:16:13;35.90;;;22.93;;
20014;SDS011;61787;42.022;23.078;2022-11-15T01:17:18;36.77;;;22.93;;
20014;SDS011;61787;42.022;23.078;2022-11-15T01:18:20;35.37;;;20.97;;
20014;SDS011;61787;42.022;23.078;2022-11-15T01:19:22;33.37;;;19.67;;
20014;SDS011;61787;42.022;23.078;2022-11-15T01:20:23;37.97;;;20.53;;
20014;SDS011;61787;42.022;23.078;2022-11-15T01:21:25;41.60;;;30.60;;
20014;SDS011;61787;42.022;23.078;2022-11-15T01:22:27;38.27;;;23.33;;
20014;SDS011;61787;42.022;23.078;2022-11-15T01:23:28;39.53;;;22.70;;
20014;SDS011;61787;42.022;23.078;2022-11-15T01:24:31;41.50;;;23.83;;
20014;SDS011;61787;42.022;23.078;2022-11-15T01:25:32;35.80;;;23.53;;
20014;SDS011;61787;42.022;23.078;2022-11-15T01:26:34;45.93;;;23.83;;
20014;SDS011;61787;42.022;23.078;2022-11-15T01:27:35;39.27;;;24.47;;
20014;SDS011;61787;42.022;23.078;2022-11-15T01:28:38;44.53;;;24.57;;
20014;SDS011;61787;42.022;23.078;2022-11-15T01:29:41;42.27;;;24.83;;
20014;SDS011;61787;42.022;23.078;2022-11-15T01:30:42;43.13;;;22.73;;
20014;SDS011;61787;42.022;23.078;2022-11-15T01:31:44;46.10;;;25.27;;
20014;SDS011;61787;42.022;23.078;2022-11-15T01:32:45;42.80;;;22.50;;
20014;SDS011;61787;42.022;23.078;2022-11-15T01:33:47;41.57;;;22.97;;
20014;SDS011;61787;42.022;23.078;2022-11-15T01:34:49;41.33;;;23.57;;
20014;SDS011;61787;42.022;23.078;2022-11-15T01:35:51;46.27;;;26.07;;
20014;SDS011;61787;42.022;23.078;2022-11-15T01:36:52;43.43;;;24.27;;
20014;SDS011;61787;42.022;23.078;2022-11-15T01:37:54;43.13;;;22.00;;
20014;SDS011;61787;42.022;23.078;2022-11-15T01:38:56;42.07;;;23.30;;
20014;SDS011;61787;42.022;23.078;2022-11-15T01:39:58;43.50;;;24.97;;
20014;SDS011;61787;42.022;23.078;2022-11-15T01:41:00;41.03;;;26.10;;
20014;SDS011;61787;42.022;23.078;2022-11-15T01:42:02;40.83;;;22.67;;
20014;SDS011;61787;42.022;23.078;2022-11-15T01:44:45;40.73;;;22.53;;
20014;SDS011;61787;42.022;23.078;2022-11-15T01:45:52;36.57;;;22.00;;
20014;SDS011;61787;42.022;23.078;2022-11-15T01:47:04;39.10;;;22.43;;
20014;SDS011;61787;42.022;23.078;2022-11-15T01:48:13;42.87;;;25.63;;
20014;SDS011;61787;42.022;23.078;2022-11-15T01:49:15;37.90;;;21.53;;
20014;SDS011;61787;42.022;23.078;2022-11-15T01:50:22;43.20;;;23.70;;
20014;SDS011;61787;42.022;23.078;2022-11-15T01:51:29;39.60;;;20.37;;
20014;SDS011;61787;42.022;23.078;2022-11-15T01:52:33;33.07;;;19.37;;
20014;SDS011;61787;42.022;23.078;2022-11-15T01:53:36;37.63;;;25.17;;
20014;SDS011;61787;42.022;23.078;2022-11-15T01:54:42;32.90;;;20.90;;
20014;SDS011;61787;42.022;23.078;2022-11-15T01:55:44;33.10;;;19.63;;
20014;SDS011;61787;42.022;23.078;2022-11-15T01:56:47;39.87;;;28.03;;
20014;SDS011;61787;42.022;23.078;2022-11-15T01:57:53;37.53;;;24.87;;
20014;SDS011;61787;42.022;23.078;2022-11-15T01:58:59;39.30;;;25.10;;
20014;SDS011;61787;42.022;23.078;2022-11-15T02:00:04;41.53;;;26.87;;
20014;SDS011;61787;42.022;23.078;2022-11-15T02:01:07;40.73;;;26.90;;
20014;SDS011;61787;42.022;23.078;2022-11-15T02:02:09;35.67;;;26.10;;
20014;SDS011;61787;42.022;23.078;2022-11-15T02:03:10;37.50;;;26.87;;
20014;SDS011;61787;42.022;23.078;2022-11-15T02:05:00;35.97;;;26.67;;
20014;SDS011;61787;42.022;23.078;2022-11-15T02:05:42;35.40;;;25.83;;
20014;SDS011;61787;42.022;23.078;2022-11-15T02:06:45;36.60;;;25.87;;
20014;SDS011;61787;42.022;23.078;2022-11-15T02:07:49;37.60;;;20.10;;
20014;SDS011;61787;42.022;23.078;2022-11-15T02:08:51;34.47;;;19.93;;
20014;SDS011;61787;42.022;23.078;2022-11-15T02:09:54;36.07;;;19.77;;
20014;SDS011;61787;42.022;23.078;2022-11-15T02:10:56;33.63;;;23.07;;
20014;SDS011;61787;42.022;23.078;2022-11-15T02:11:58;33.07;;;20.10;;
20014;SDS011;61787;42.022;23.078;2022-11-15T02:13:01;37.47;;;21.13;;
20014;SDS011;61787;42.022;23.078;2022-11-15T02:14:03;44.00;;;26.63;;
20014;SDS011;61787;42.022;23.078;2022-11-15T02:15:06;34.37;;;22.77;;
20014;SDS011;61787;42.022;23.078;2022-11-15T02:16:19;33.87;;;20.73;;
20014;SDS011;61787;42.022;23.078;2022-11-15T02:18:50;41.67;;;26.97;;
20014;SDS011;61787;42.022;23.078;2022-11-15T02:35:52;36.90;;;20.87;;
20014;SDS011;61787;42.022;23.078;2022-11-15T02:39:54;28.10;;;17.80;;
20014;SDS011;61787;42.022;23.078;2022-11-15T02:41:06;28.63;;;19.00;;
20014;SDS011;61787;42.022;23.078;2022-11-15T02:42:11;32.73;;;18.83;;
20014;SDS011;61787;42.022;23.078;2022-11-15T02:44:58;30.53;;;17.50;;
20014;SDS011;61787;42.022;23.078;2022-11-15T02:46:13;32.23;;;17.40;;
20014;SDS011;61787;42.022;23.078;2022-11-15T02:47:49;31.70;;;17.13;;
20014;SDS011;61787;42.022;23.078;2022-11-15T02:48:53;31.20;;;19.40;;
20014;SDS011;61787;42.022;23.078;2022-11-15T02:49:57;34.77;;;25.57;;
20014;SDS011;61787;42.022;23.078;2022-11-15T02:51:02;34.60;;;25.20;;
20014;SDS011;61787;42.022;23.078;2022-11-15T02:52:04;33.50;;;17.80;;
20014;SDS011;61787;42.022;23.078;2022-11-15T02:53:07;34.17;;;19.20;;
20014;SDS011;61787;42.022;23.078;2022-11-15T02:54:52;35.63;;;19.57;;
20014;SDS011;61787;42.022;23.078;2022-11-15T02:55:38;33.70;;;19.97;;
20014;SDS011;61787;42.022;23.078;2022-11-15T02:56:45;32.33;;;18.70;;
20014;SDS011;61787;42.022;23.078;2022-11-15T03:00:15;35.00;;;20.93;;
20014;SDS011;61787;42.022;23.078;2022-11-15T03:01:38;38.87;;;22.67;;
20014;SDS011;61787;42.022;23.078;2022-11-15T03:05:47;37.37;;;20.53;;
20014;SDS011;61787;42.022;23.078;2022-11-15T03:09:50;35.63;;;23.03;;
20014;SDS011;61787;42.022;23.078;2022-11-15T03:12:16;37.57;;;24.13;;
20014;SDS011;61787;42.022;23.078;2022-11-15T03:13:27;37.40;;;20.47;;
20014;SDS011;61787;42.022;23.078;2022-11-15T03:14:39;39.07;;;23.20;;
20014;SDS011;61787;42.022;23.078;2022-11-15T03:15:52;38.73;;;20.43;;
20014;SDS011;61787;42.022;23.078;2022-11-15T03:17:18;34.13;;;22.17;;
20014;SDS011;61787;42.022;23.078;2022-11-15T03:18:46;36.70;;;20.73;;
20014;SDS011;61787;42.022;23.078;2022-11-15T03:19:54;45.63;;;23.47;;
20014;SDS011;61787;42.022;23.078;2022-11-15T03:21:00;38.97;;;20.60;;
20014;SDS011;61787;42.022;23.078;2022-11-15T03:22:06;34.27;;;21.13;;
20014;SDS011;61787;42.022;23.078;2022-11-15T03:23:11;38.07;;;26.20;;
20014;SDS011;61787;42.022;23.078;2022-11-15T03:24:14;36.10;;;26.23;;
20014;SDS011;61787;42.022;23.078;2022-11-15T03:25:26;36.00;;;21.17;;
20014;SDS011;61787;42.022;23.078;2022-11-15T03:26:31;40.13;;;22.20;;
20014;SDS011;61787;42.022;23.078;2022-11-15T03:27:36;35.27;;;21.03;;
20014;SDS011;61787;42.022;23.078;2022-11-15T03:28:47;31.77;;;19.70;;
20014;SDS011;61787;42.022;23.078;2022-11-15T03:29:55;35.10;;;20.27;;
20014;SDS011;61787;42.022;23.078;2022-11-15T03:31:00;38.87;;;25.10;;
20014;SDS011;61787;42.022;23.078;2022-11-15T03:32:25;37.10;;;19.03;;
20014;SDS011;61787;42.022;23.078;2022-11-15T03:33:30;31.80;;;18.50;;
20014;SDS011;61787;42.022;23.078;2022-11-15T03:34:41;33.80;;;19.53;;
20014;SDS011;61787;42.022;23.078;2022-11-15T03:35:46;37.57;;;25.33;;
20014;SDS011;61787;42.022;23.078;2022-11-15T03:36:49;36.43;;;23.03;;
20014;SDS011;61787;42.022;23.078;2022-11-15T03:39:04;32.93;;;18.73;;
20014;SDS011;61787;42.022;23.078;2022-11-15T03:40:08;35.53;;;18.57;;
20014;SDS011;61787;42.022;23.078;2022-11-15T03:41:14;36.33;;;20.07;;
20014;SDS011;61787;42.022;23.078;2022-11-15T03:46:14;31.00;;;21.00;;
20014;SDS011;61787;42.022;23.078;2022-11-15T03:47:23;33.80;;;22.57;;
20014;SDS011;61787;42.022;23.078;2022-11-15T03:48:30;36.60;;;25.10;;
20014;SDS011;61787;42.022;23.078;2022-11-15T03:49:38;36.67;;;23.63;;
20014;SDS011;61787;42.022;23.078;2022-11-15T03:50:45;37.87;;;22.13;;
20014;SDS011;61787;42.022;23.078;2022-11-15T03:51:48;35.73;;;19.93;;
20014;SDS011;61787;42.022;23.078;2022-11-15T03:52:50;38.27;;;26.03;;
20014;SDS011;61787;42.022;23.078;2022-11-15T03:53:52;33.60;;;21.73;;
20014;SDS011;61787;42.022;23.078;2022-11-15T03:54:54;36.43;;;20.50;;
20014;SDS011;61787;42.022;23.078;2022-11-15T03:55:57;36.87;;;19.70;;
20014;SDS011;61787;42.022;23.078;2022-11-15T03:56:59;39.53;;;19.03;;
20014;SDS011;61787;42.022;23.078;2022-11-15T03:58:01;35.73;;;21.53;;
20014;SDS011;61787;42.022;23.078;2022-11-15T03:59:03;32.70;;;19.57;;
20014;SDS011;61787;42.022;23.078;2022-11-15T04:00:05;35.37;;;20.87;;
20014;SDS011;61787;42.022;23.078;2022-11-15T04:01:07;31.63;;;18.20;;
20014;SDS011;61787;42.022;23.078;2022-11-15T04:02:08;33.13;;;19.27;;
20014;SDS011;61787;42.022;23.078;2022-11-15T04:03:10;33.03;;;21.07;;
20014;SDS011;61787;42.022;23.078;2022-11-15T04:04:12;36.70;;;20.07;;
20014;SDS011;61787;42.022;23.078;2022-11-15T04:05:13;36.77;;;20.07;;
20014;SDS011;61787;42.022;23.078;2022-11-15T04:06:15;34.87;;;20.20;;
20014;SDS011;61787;42.022;23.078;2022-11-15T04:07:16;33.87;;;19.70;;
20014;SDS011;61787;42.022;23.078;2022-11-15T04:08:18;34.70;;;19.63;;
20014;SDS011;61787;42.022;23.078;2022-11-15T04:09:20;31.83;;;19.87;;
20014;SDS011;61787;42.022;23.078;2022-11-15T04:10:21;32.53;;;21.67;;
20014;SDS011;61787;42.022;23.078;2022-11-15T04:11:23;38.40;;;21.70;;
20014;SDS011;61787;42.022;23.078;2022-11-15T04:12:24;38.60;;;19.97;;
20014;SDS011;61787;42.022;23.078;2022-11-15T04:13:32;36.07;;;20.83;;
20014;SDS011;61787;42.022;23.078;2022-11-15T04:14:34;36.30;;;21.73;;
20014;SDS011;61787;42.022;23.078;2022-11-15T04:15:35;33.80;;;20.37;;
20014;SDS011;61787;42.022;23.078;2022-11-15T04:16:37;44.00;;;21.73;;
20014;SDS011;61787;42.022;23.078;2022-11-15T04:18:52;37.83;;;21.07;;
20014;SDS011;61787;42.022;23.078;2022-11-15T04:20:20;31.13;;;19.70;;
20014;SDS011;61787;42.022;23.078;2022-11-15T04:21:42;37.30;;;21.23;;
20014;SDS011;61787;42.022;23.078;2022-11-15T04:23:03;34.40;;;20.70;;
20014;SDS011;61787;42.022;23.078;2022-11-15T04:24:25;34.40;;;19.47;;
20014;SDS011;61787;42.022;23.078;2022-11-15T04:25:26;34.20;;;19.43;;
20014;SDS011;61787;42.022;23.078;2022-11-15T04:26:32;34.07;;;20.53;;
20014;SDS011;61787;42.022;23.078;2022-11-15T04:27:34;36.13;;;21.07;;
20014;SDS011;61787;42.022;23.078;2022-11-15T04:28:36;46.27;;;20.40;;
20014;SDS011;61787;42.022;23.078;2022-11-15T04:30:01;32.90;;;19.97;;
20014;SDS011;61787;42.022;23.078;2022-11-15T04:31:03;36.23;;;20.53;;
20014;SDS011;61787;42.022;23.078;2022-11-15T04:32:06;36.93;;;18.73;;
20014;SDS011;61787;42.022;23.078;2022-11-15T04:33:08;32.63;;;19.93;;
20014;SDS011;61787;42.022;23.078;2022-11-15T04:34:09;35.33;;;19.67;;
20014;SDS011;61787;42.022;23.078;2022-11-15T04:35:11;34.20;;;18.87;;
20014;SDS011;61787;42.022;23.078;2022-11-15T04:36:13;34.63;;;22.27;;
20014;SDS011;61787;42.022;23.078;2022-11-15T04:37:33;36.70;;;21.27;;
20014;SDS011;61787;42.022;23.078;2022-11-15T04:38:35;43.37;;;22.73;;
20014;SDS011;61787;42.022;23.078;2022-11-15T04:39:37;43.77;;;23.13;;
20014;SDS011;61787;42.022;23.078;2022-11-15T04:40:39;41.67;;;23.37;;
20014;SDS011;61787;42.022;23.078;2022-11-15T04:41:41;36.17;;;24.07;;
20014;SDS011;61787;42.022;23.078;2022-11-15T04:42:43;37.77;;;23.80;;
20014;SDS011;61787;42.022;23.078;2022-11-15T04:43:44;43.33;;;25.80;;
20014;SDS011;61787;42.022;23.078;2022-11-15T04:44:46;41.70;;;22.33;;
20014;SDS011;61787;42.022;23.078;2022-11-15T04:45:47;45.40;;;29.30;;
20014;SDS011;61787;42.022;23.078;2022-11-15T04:46:49;45.87;;;28.83;;
20014;SDS011;61787;42.022;23.078;2022-11-15T04:47:50;41.40;;;28.07;;
20014;SDS011;61787;42.022;23.078;2022-11-15T04:48:52;43.03;;;29.23;;
20014;SDS011;61787;42.022;23.078;2022-11-15T04:49:59;40.70;;;28.57;;
20014;SDS011;61787;42.022;23.078;2022-11-15T04:51:01;46.90;;;26.93;;
20014;SDS011;61787;42.022;23.078;2022-11-15T04:52:02;42.47;;;21.37;;
20014;SDS011;61787;42.022;23.078;2022-11-15T04:53:04;45.77;;;28.50;;
20014;SDS011;61787;42.022;23.078;2022-11-15T04:54:07;43.33;;;28.07;;
20014;SDS011;61787;42.022;23.078;2022-11-15T04:55:09;37.40;;;20.87;;
20014;SDS011;61787;42.022;23.078;2022-11-15T04:56:11;47.60;;;22.63;;
20014;SDS011;61787;42.022;23.078;2022-11-15T04:57:15;37.57;;;21.47;;
20014;SDS011;61787;42.022;23.078;2022-11-15T04:58:17;43.00;;;22.33;;
20014;SDS011;61787;42.022;23.078;2022-11-15T04:59:19;42.47;;;26.97;;
20014;SDS011;61787;42.022;23.078;2022-11-15T05:00:20;40.77;;;23.97;;
20014;SDS011;61787;42.022;23.078;2022-11-15T05:01:22;42.07;;;27.50;;
20014;SDS011;61787;42.022;23.078;2022-11-15T05:02:23;37.97;;;23.63;;
20014;SDS011;61787;42.022;23.078;2022-11-15T05:03:45;35.80;;;20.63;;
20014;SDS011;61787;42.022;23.078;2022-11-15T05:05:05;41.57;;;23.97;;
20014;SDS011;61787;42.022;23.078;2022-11-15T05:06:07;42.83;;;24.07;;
20014;SDS011;61787;42.022;23.078;2022-11-15T05:07:08;40.63;;;23.77;;
20014;SDS011;61787;42.022;23.078;2022-11-15T05:08:10;37.97;;;20.53;;
20014;SDS011;61787;42.022;23.078;2022-11-15T05:09:12;43.23;;;28.30;;
20014;SDS011;61787;42.022;23.078;2022-11-15T05:10:15;43.43;;;27.23;;
20014;SDS011;61787;42.022;23.078;2022-11-15T05:11:16;40.97;;;26.17;;
20014;SDS011;61787;42.022;23.078;2022-11-15T05:12:18;40.17;;;23.47;;
20014;SDS011;61787;42.022;23.078;2022-11-15T05:13:19;40.83;;;26.50;;
20014;SDS011;61787;42.022;23.078;2022-11-15T05:14:21;40.53;;;27.30;;
20014;SDS011;61787;42.022;23.078;2022-11-15T05:15:23;38.10;;;26.40;;
20014;SDS011;61787;42.022;23.078;2022-11-15T05:16:24;38.43;;;26.10;;
20014;SDS011;61787;42.022;23.078;2022-11-15T05:17:26;36.87;;;22.10;;
20014;SDS011;61787;42.022;23.078;2022-11-15T05:18:27;41.90;;;26.13;;
20014;SDS011;61787;42.022;23.078;2022-11-15T05:19:29;42.70;;;26.90;;
20014;SDS011;61787;42.022;23.078;2022-11-15T05:20:31;42.20;;;25.00;;
20014;SDS011;61787;42.022;23.078;2022-11-15T05:21:32;43.17;;;24.67;;
20014;SDS011;61787;42.022;23.078;2022-11-15T05:22:34;40.93;;;26.43;;
20014;SDS011;61787;42.022;23.078;2022-11-15T05:23:36;39.60;;;27.50;;
20014;SDS011;61787;42.022;23.078;2022-11-15T05:24:38;41.87;;;27.57;;
20014;SDS011;61787;42.022;23.078;2022-11-15T05:25:39;38.27;;;24.23;;
20014;SDS011;61787;42.022;23.078;2022-11-15T05:26:41;39.70;;;22.90;;
20014;SDS011;61787;42.022;23.078;2022-11-15T05:27:42;41.23;;;27.40;;
20014;SDS011;61787;42.022;23.078;2022-11-15T05:28:44;39.63;;;26.83;;
20014;SDS011;61787;42.022;23.078;2022-11-15T05:29:46;43.87;;;28.63;;
20014;SDS011;61787;42.022;23.078;2022-11-15T05:30:47;38.70;;;27.93;;
20014;SDS011;61787;42.022;23.078;2022-11-15T05:31:49;39.83;;;26.73;;
20014;SDS011;61787;42.022;23.078;2022-11-15T05:32:51;40.87;;;28.90;;
20014;SDS011;61787;42.022;23.078;2022-11-15T05:33:53;40.00;;;27.00;;
20014;SDS011;61787;42.022;23.078;2022-11-15T05:34:55;40.47;;;23.20;;
20014;SDS011;61787;42.022;23.078;2022-11-15T05:36:02;43.67;;;29.60;;
20014;SDS011;61787;42.022;23.078;2022-11-15T05:37:07;42.20;;;22.37;;
20014;SDS011;61787;42.022;23.078;2022-11-15T05:38:09;46.50;;;23.20;;
20014;SDS011;61787;42.022;23.078;2022-11-15T05:39:10;40.07;;;22.77;;
20014;SDS011;61787;42.022;23.078;2022-11-15T05:40:12;38.20;;;22.70;;
20014;SDS011;61787;42.022;23.078;2022-11-15T05:41:14;37.63;;;23.03;;
20014;SDS011;61787;42.022;23.078;2022-11-15T05:42:18;42.17;;;27.37;;
20014;SDS011;61787;42.022;23.078;2022-11-15T05:43:20;39.70;;;27.43;;
20014;SDS011;61787;42.022;23.078;2022-11-15T05:44:23;41.77;;;28.23;;
20014;SDS011;61787;42.022;23.078;2022-11-15T05:45:26;40.03;;;21.43;;
20014;SDS011;61787;42.022;23.078;2022-11-15T05:46:28;40.83;;;21.10;;
20014;SDS011;61787;42.022;23.078;2022-11-15T05:47:31;33.53;;;21.40;;
20014;SDS011;61787;42.022;23.078;2022-11-15T05:48:36;37.77;;;24.40;;
20014;SDS011;61787;42.022;23.078;2022-11-15T05:49:42;35.70;;;20.50;;
20014;SDS011;61787;42.022;23.078;2022-11-15T05:50:46;40.93;;;28.60;;
20014;SDS011;61787;42.022;23.078;2022-11-15T05:51:49;40.30;;;26.03;;
20014;SDS011;61787;42.022;23.078;2022-11-15T05:52:51;39.67;;;26.43;;
20014;SDS011;61787;42.022;23.078;2022-11-15T05:53:53;40.73;;;28.53;;
20014;SDS011;61787;42.022;23.078;2022-11-15T05:54:57;40.03;;;26.47;;
20014;SDS011;61787;42.022;23.078;2022-11-15T05:55:59;42.47;;;21.90;;
20014;SDS011;61787;42.022;23.078;2022-11-15T05:57:01;39.07;;;23.47;;
20014;SDS011;61787;42.022;23.078;2022-11-15T05:58:03;41.53;;;25.40;;
20014;SDS011;61787;42.022;23.078;2022-11-15T05:59:05;40.80;;;25.00;;
20014;SDS011;61787;42.022;23.078;2022-11-15T06:00:08;38.60;;;21.43;;
20014;SDS011;61787;42.022;23.078;2022-11-15T06:01:10;38.50;;;28.27;;
20014;SDS011;61787;42.022;23.078;2022-11-15T06:02:12;41.90;;;27.83;;
20014;SDS011;61787;42.022;23.078;2022-11-15T06:03:13;39.37;;;27.53;;
20014;SDS011;61787;42.022;23.078;2022-11-15T06:04:15;44.77;;;27.90;;
20014;SDS011;61787;42.022;23.078;2022-11-15T06:05:17;46.13;;;27.83;;
20014;SDS011;61787;42.022;23.078;2022-11-15T06:06:18;43.40;;;27.53;;
20014;SDS011;61787;42.022;23.078;2022-11-15T06:07:20;45.43;;;21.80;;
20014;SDS011;61787;42.022;23.078;2022-11-15T06:08:22;34.77;;;22.50;;
20014;SDS011;61787;42.022;23.078;2022-11-15T06:09:23;40.43;;;24.33;;
20014;SDS011;61787;42.022;23.078;2022-11-15T06:10:25;40.50;;;26.30;;
20014;SDS011;61787;42.022;23.078;2022-11-15T06:11:27;40.13;;;27.67;;
20014;SDS011;61787;42.022;23.078;2022-11-15T06:12:28;46.97;;;26.73;;
20014;SDS011;61787;42.022;23.078;2022-11-15T06:13:30;44.53;;;29.43;;
20014;SDS011;61787;42.022;23.078;2022-11-15T06:14:32;41.33;;;26.47;;
20014;SDS011;61787;42.022;23.078;2022-11-15T06:15:34;41.40;;;28.37;;
20014;SDS011;61787;42.022;23.078;2022-11-15T06:16:36;44.63;;;21.77;;
20014;SDS011;61787;42.022;23.078;2022-11-15T06:17:37;42.60;;;27.80;;
20014;SDS011;61787;42.022;23.078;2022-11-15T06:18:39;41.03;;;24.03;;
20014;SDS011;61787;42.022;23.078;2022-11-15T06:19:49;44.63;;;27.53;;
20014;SDS011;61787;42.022;23.078;2022-11-15T06:20:51;38.53;;;28.27;;
20014;SDS011;61787;42.022;23.078;2022-11-15T06:21:52;43.87;;;28.83;;
20014;SDS011;61787;42.022;23.078;2022-11-15T06:22:57;39.77;;;28.77;;
20014;SDS011;61787;42.022;23.078;2022-11-15T06:24:00;49.63;;;30.67;;
20014;SDS011;61787;42.022;23.078;2022-11-15T06:25:01;46.87;;;28.13;;
20014;SDS011;61787;42.022;23.078;2022-11-15T06:26:05;47.20;;;23.83;;
20014;SDS011;61787;42.022;23.078;2022-11-15T06:27:07;48.80;;;28.93;;
20014;SDS011;61787;42.022;23.078;2022-11-15T06:28:09;48.47;;;27.27;;
20014;SDS011;61787;42.022;23.078;2022-11-15T06:29:10;47.90;;;26.23;;
20014;SDS011;61787;42.022;23.078;2022-11-15T06:30:12;46.13;;;25.73;;
20014;SDS011;61787;42.022;23.078;2022-11-15T06:31:14;47.53;;;29.57;;
20014;SDS011;61787;42.022;23.078;2022-11-15T06:32:15;51.70;;;26.80;;
20014;SDS011;61787;42.022;23.078;2022-11-15T06:33:17;50.77;;;33.57;;
20014;SDS011;61787;42.022;23.078;2022-11-15T06:34:18;50.93;;;33.87;;
20014;SDS011;61787;42.022;23.078;2022-11-15T06:35:20;53.23;;;33.43;;
20014;SDS011;61787;42.022;23.078;2022-11-15T06:36:22;51.13;;;30.20;;
20014;SDS011;61787;42.022;23.078;2022-11-15T06:37:24;46.73;;;29.57;;
20014;SDS011;61787;42.022;23.078;2022-11-15T06:38:26;46.40;;;25.20;;
20014;SDS011;61787;42.022;23.078;2022-11-15T06:39:27;51.53;;;31.00;;
20014;SDS011;61787;42.022;23.078;2022-11-15T06:40:29;49.03;;;31.73;;
20014;SDS011;61787;42.022;23.078;2022-11-15T06:41:33;53.77;;;31.03;;
20014;SDS011;61787;42.022;23.078;2022-11-15T06:42:35;42.43;;;24.37;;
20014;SDS011;61787;42.022;23.078;2022-11-15T06:43:37;45.27;;;29.70;;
20014;SDS011;61787;42.022;23.078;2022-11-15T06:44:39;47.87;;;28.43;;
20014;SDS011;61787;42.022;23.078;2022-11-15T06:45:41;47.13;;;29.30;;
20014;SDS011;61787;42.022;23.078;2022-11-15T06:46:42;44.17;;;25.07;;
20014;SDS011;61787;42.022;23.078;2022-11-15T06:47:45;42.03;;;27.70;;